Time;durP1;ratioP1;P1;durP2;ratioP2;P2;SDS_P1;SDS_P2;PMS_P1;PMS_P2;Temp;Humidity;BMP_temperature;BMP_pressure;BME280_temperature;BME280_humidity;BME280_pressure;Samples;Min_cycle;Max_cycle;Signal;HPM_P1;HPM_P2
2022/01/12 00:00:07;;;;;;;9.30;4.35;;;1.50;99.90;;;;;;7183154;32;20700;-76
2022/01/12 00:04:10;;;;;;;10.60;5.05;;;1.50;99.90;;;;;;7199184;32;20691;-76
2022/01/12 00:08:12;;;;;;;8.77;4.53;;;1.50;99.90;;;;;;7174149;32;20692;-76
2022/01/12 00:12:14;;;;;;;7.55;4.70;;;1.60;99.90;;;;;;7177294;32;20151;-76
2022/01/12 00:16:17;;;;;;;8.55;4.93;;;1.50;99.90;;;;;;7185052;32;20833;-76
2022/01/12 00:20:19;;;;;;;8.82;4.95;;;1.50;99.90;;;;;;7185857;32;20212;-76
2022/01/12 00:24:21;;;;;;;8.55;4.93;;;1.50;99.90;;;;;;7184631;32;20101;-76
2022/01/12 00:37:11;;;;;;;8.75;4.43;;;1.50;99.90;;;;;;7200846;32;20227;-76
2022/01/12 00:41:16;;;;;;;8.15;4.65;;;1.40;99.90;;;;;;7196610;32;20869;-76
2022/01/12 00:45:18;;;;;;;8.75;4.95;;;1.40;99.90;;;;;;7201092;32;20197;-76
2022/01/12 00:49:20;;;;;;;8.88;4.75;;;1.50;99.90;;;;;;7200041;32;20093;-76
2022/01/12 00:53:22;;;;;;;7.60;4.47;;;1.50;99.90;;;;;;7195776;32;20113;-76
2022/01/12 00:57:24;;;;;;;9.75;4.22;;;1.50;99.90;;;;;;7183553;32;20140;-76
2022/01/12 01:01:26;;;;;;;8.43;4.57;;;1.50;99.90;;;;;;7206460;32;20105;-76
2022/01/12 01:05:32;;;;;;;11.07;4.40;;;1.50;99.90;;;;;;7193340;32;20158;-76
2022/01/12 01:09:37;;;;;;;7.62;4.37;;;1.50;99.90;;;;;;7190728;32;20175;-76
2022/01/12 01:13:56;;;;;;;8.00;4.25;;;1.50;99.90;;;;;;7174515;32;20444;-76
2022/01/12 01:26:41;;;;;;;9.05;4.37;;;1.60;99.90;;;;;;7177972;32;20778;-76
2022/01/12 01:30:45;;;;;;;7.82;4.12;;;1.60;99.90;;;;;;7193447;32;20220;-76
2022/01/12 01:34:48;;;;;;;8.35;4.35;;;1.70;99.90;;;;;;7187813;32;20136;-76
2022/01/12 01:38:50;;;;;;;11.80;4.57;;;1.80;99.90;;;;;;7203739;32;20263;-76
2022/01/12 01:43:08;;;;;;;11.93;4.72;;;1.80;99.90;;;;;;7200718;32;20119;-76
2022/01/12 01:55:53;;;;;;;7.95;5.03;;;1.80;99.90;;;;;;7192180;32;20210;-76
2022/01/12 01:59:54;;;;;;;9.73;4.93;;;1.80;99.90;;;;;;7191026;32;20138;-77
2022/01/12 02:04:01;;;;;;;10.38;4.80;;;1.80;99.90;;;;;;7185322;32;20574;-76
2022/01/12 02:08:03;;;;;;;11.90;4.65;;;1.90;99.90;;;;;;7198771;32;20247;-76
2022/01/12 02:12:05;;;;;;;7.85;4.25;;;2.00;99.90;;;;;;7195138;32;20455;-76
2022/01/12 02:16:07;;;;;;;8.63;4.53;;;2.00;99.90;;;;;;7198830;32;20165;-76
2022/01/12 02:20:28;;;;;;;8.15;5.15;;;2.10;99.90;;;;;;7189293;33;20179;-76
2022/01/12 02:41:52;;;;;;;8.35;4.85;;;1.80;99.90;;;;;;7184822;32;20457;-76
2022/01/12 02:54:36;;;;;;;9.23;5.10;;;1.70;99.90;;;;;;7187463;33;20135;-75
2022/01/12 02:58:39;;;;;;;9.63;4.53;;;1.70;99.90;;;;;;7178799;33;20187;-75
2022/01/12 03:02:43;;;;;;;11.95;5.62;;;1.60;99.90;;;;;;7191800;32;20131;-78
2022/01/12 03:06:46;;;;;;;9.85;5.40;;;1.60;99.90;;;;;;7201749;33;20176;-76
2022/01/12 03:10:47;;;;;;;13.75;6.18;;;1.50;99.90;;;;;;7207905;33;20105;-75
2022/01/12 03:14:49;;;;;;;10.20;5.57;;;1.50;99.90;;;;;;7188309;32;20101;-76
2022/01/12 03:18:53;;;;;;;10.05;5.62;;;1.50;99.90;;;;;;7186468;33;20642;-75
2022/01/12 03:22:55;;;;;;;11.85;5.55;;;1.60;99.90;;;;;;7205281;32;20101;-76
2022/01/12 03:26:56;;;;;;;12.70;5.70;;;1.60;99.90;;;;;;7190778;33;20460;-76
2022/01/12 03:31:20;;;;;;;9.55;5.40;;;1.50;99.90;;;;;;7193526;33;20106;-77
2022/01/12 03:35:46;;;;;;;11.55;5.70;;;1.60;99.90;;;;;;7191926;32;20132;-76
2022/01/12 03:39:51;;;;;;;8.68;5.05;;;1.60;99.90;;;;;;7183901;32;20093;-76
2022/01/12 03:43:55;;;;;;;10.93;5.07;;;1.60;99.90;;;;;;7189492;32;20240;-76
2022/01/12 03:47:57;;;;;;;12.43;5.35;;;1.60;99.90;;;;;;7187981;32;20129;-76
2022/01/12 03:51:58;;;;;;;11.30;5.87;;;1.70;99.90;;;;;;7188702;32;20105;-76
2022/01/12 03:56:00;;;;;;;7.93;5.40;;;1.80;99.90;;;;;;7202633;32;20105;-76
2022/01/12 04:00:04;;;;;;;11.57;6.47;;;1.80;99.90;;;;;;7190425;32;20691;-76
2022/01/12 04:04:10;;;;;;;10.63;5.05;;;1.80;99.90;;;;;;7201189;32;20177;-76
2022/01/12 04:08:23;;;;;;;9.90;5.53;;;1.80;99.90;;;;;;7180084;32;20137;-76
2022/01/12 04:12:28;;;;;;;10.55;5.75;;;1.80;99.90;;;;;;7202752;32;20109;-76
2022/01/12 04:16:30;;;;;;;11.40;5.85;;;1.90;99.90;;;;;;7174655;32;20484;-76
2022/01/12 04:20:32;;;;;;;11.05;5.43;;;2.00;99.90;;;;;;7185252;32;20236;-76
2022/01/12 04:24:35;;;;;;;11.15;5.75;;;2.00;99.90;;;;;;7200924;32;20338;-76
2022/01/12 04:28:40;;;;;;;8.57;5.18;;;2.00;99.90;;;;;;7171930;32;20176;-76
2022/01/12 04:32:43;;;;;;;13.60;5.65;;;2.10;99.90;;;;;;7191283;32;20520;-76
2022/01/12 04:36:44;;;;;;;9.85;5.53;;;2.10;99.90;;;;;;7187132;32;20220;-76
2022/01/12 04:40:47;;;;;;;9.77;5.95;;;2.10;99.90;;;;;;7206184;32;20172;-76
2022/01/12 04:44:58;;;;;;;10.13;5.93;;;2.20;99.90;;;;;;7187922;32;20181;-76
2022/01/12 04:49:26;;;;;;;10.80;5.55;;;2.20;99.90;;;;;;7198781;32;20134;-77
2022/01/12 04:53:30;;;;;;;12.63;6.05;;;2.20;99.90;;;;;;7197719;32;20117;-76
2022/01/12 04:57:32;;;;;;;9.95;5.80;;;2.30;99.90;;;;;;7195994;32;20891;-76
2022/01/12 05:01:47;;;;;;;10.05;6.22;;;2.10;99.90;;;;;;7200102;32;20196;-77
2022/01/12 05:14:38;;;;;;;10.57;6.43;;;2.10;99.90;;;;;;7179035;32;20471;-76
2022/01/12 05:18:42;;;;;;;8.02;5.90;;;2.10;99.90;;;;;;7185408;32;20187;-75
2022/01/12 05:22:44;;;;;;;10.65;5.57;;;2.20;99.90;;;;;;7191115;32;20699;-76
2022/01/12 05:26:46;;;;;;;8.93;5.50;;;2.30;99.90;;;;;;7198619;32;20131;-76
2022/01/12 05:30:49;;;;;;;11.85;6.43;;;2.40;99.90;;;;;;7175332;32;20136;-76
2022/01/12 05:34:57;;;;;;;10.02;5.90;;;2.30;99.90;;;;;;7204505;32;20147;-76
2022/01/12 05:39:00;;;;;;;10.20;6.10;;;2.30;99.90;;;;;;7199570;32;20121;-77
2022/01/12 05:43:02;;;;;;;10.60;5.75;;;2.30;99.90;;;;;;7198141;32;20181;-76
2022/01/12 05:47:05;;;;;;;10.55;6.40;;;2.30;99.90;;;;;;7188276;32;20278;-76
2022/01/12 05:51:07;;;;;;;9.52;6.05;;;2.30;99.90;;;;;;7187569;32;20567;-76
2022/01/12 05:55:11;;;;;;;12.15;6.78;;;2.30;99.90;;;;;;7180741;32;20105;-76
2022/01/12 05:59:12;;;;;;;8.35;5.30;;;2.20;99.90;;;;;;7195592;32;20105;-77
2022/01/12 06:03:14;;;;;;;11.10;6.82;;;2.20;99.90;;;;;;7198412;32;20211;-77
2022/01/12 06:07:16;;;;;;;10.00;6.00;;;2.10;99.90;;;;;;7197917;32;20113;-78
2022/01/12 06:11:23;;;;;;;9.80;6.70;;;2.00;99.90;;;;;;7182293;32;20203;-77
2022/01/12 06:15:25;;;;;;;11.27;6.72;;;2.00;99.90;;;;;;7203211;32;20216;-77
2022/01/12 06:19:27;;;;;;;11.52;6.37;;;2.00;99.90;;;;;;7186033;33;20235;-75
2022/01/12 06:23:29;;;;;;;12.68;7.30;;;1.90;99.90;;;;;;7184018;33;20116;-77
2022/01/12 06:27:33;;;;;;;12.95;7.20;;;1.90;99.90;;;;;;7195924;32;20186;-77
2022/01/12 06:31:41;;;;;;;11.98;6.80;;;1.90;99.90;;;;;;7197241;32;20228;-76
2022/01/12 06:35:43;;;;;;;11.30;7.07;;;1.90;99.90;;;;;;7182633;32;20240;-76
2022/01/12 06:39:45;;;;;;;10.40;6.35;;;1.80;99.90;;;;;;7188487;32;20255;-76
2022/01/12 06:43:47;;;;;;;11.93;6.78;;;1.90;99.90;;;;;;7183187;32;20175;-76
2022/01/12 06:47:49;;;;;;;11.82;6.85;;;1.90;99.90;;;;;;7200865;32;20106;-77
2022/01/12 06:51:53;;;;;;;11.88;6.85;;;2.00;99.90;;;;;;7198541;32;20145;-77
2022/01/12 06:55:55;;;;;;;12.55;7.43;;;2.00;99.90;;;;;;7196925;32;20659;-77
2022/01/12 06:59:57;;;;;;;10.68;7.18;;;2.00;99.90;;;;;;7204844;32;20848;-77
2022/01/12 07:03:59;;;;;;;10.02;6.47;;;2.00;99.90;;;;;;7185309;32;20180;-76
2022/01/12 07:08:02;;;;;;;10.45;7.03;;;2.00;99.90;;;;;;7196023;32;20877;-77
2022/01/12 07:12:04;;;;;;;10.95;7.15;;;2.10;99.90;;;;;;7192161;32;20240;-77
2022/01/12 07:16:06;;;;;;;11.43;6.75;;;2.00;99.90;;;;;;7204030;32;20509;-76
2022/01/12 07:20:09;;;;;;;12.30;7.37;;;2.10;99.90;;;;;;7205026;32;20122;-76
2022/01/12 07:24:10;;;;;;;10.45;6.87;;;2.10;99.90;;;;;;7203354;32;20192;-77
2022/01/12 07:28:12;;;;;;;11.68;7.03;;;2.30;99.90;;;;;;7203615;32;20177;-77
2022/01/12 07:32:14;;;;;;;13.02;6.93;;;2.30;99.90;;;;;;7202716;32;20159;-77
2022/01/12 07:36:17;;;;;;;14.77;6.85;;;2.30;99.90;;;;;;7195107;32;20188;-76
2022/01/12 07:40:18;;;;;;;12.27;7.12;;;2.40;99.90;;;;;;7206718;32;20188;-77
2022/01/12 07:44:21;;;;;;;15.40;7.25;;;2.40;99.90;;;;;;7190663;32;20106;-76
2022/01/12 07:48:23;;;;;;;10.45;6.40;;;2.50;99.90;;;;;;7181729;32;20125;-77
2022/01/12 07:52:26;;;;;;;13.15;6.75;;;2.70;99.90;;;;;;7205291;32;20234;-76
2022/01/12 07:56:32;;;;;;;10.60;6.78;;;2.80;99.90;;;;;;7207037;32;20102;-76
2022/01/12 08:00:35;;;;;;;11.38;7.05;;;2.70;99.90;;;;;;7191721;32;20180;-76
2022/01/12 08:04:38;;;;;;;10.07;6.55;;;2.70;99.90;;;;;;7189752;32;20549;-76
2022/01/12 08:08:40;;;;;;;10.27;6.70;;;2.60;99.90;;;;;;7200433;32;20195;-77
2022/01/12 08:12:42;;;;;;;14.70;7.07;;;2.70;99.90;;;;;;7192754;32;20140;-76
2022/01/12 08:16:44;;;;;;;15.65;7.22;;;2.60;99.90;;;;;;7182122;32;20188;-76
2022/01/12 08:20:45;;;;;;;12.02;6.87;;;2.80;99.90;;;;;;7207492;32;20250;-76
2022/01/12 08:24:47;;;;;;;12.98;7.05;;;2.90;99.90;;;;;;7177970;32;20124;-76
2022/01/12 08:28:49;;;;;;;15.65;7.47;;;2.90;99.90;;;;;;7194201;32;20443;-76
2022/01/12 08:32:52;;;;;;;11.60;7.10;;;2.90;99.90;;;;;;7176607;32;20131;-76
2022/01/12 08:36:54;;;;;;;13.10;7.93;;;2.80;99.90;;;;;;7193315;32;20184;-76
2022/01/12 08:40:56;;;;;;;12.90;6.60;;;2.90;99.90;;;;;;7203112;32;20266;-77
2022/01/12 08:44:59;;;;;;;12.27;6.97;;;3.00;99.90;;;;;;7188966;32;20641;-76
2022/01/12 08:49:01;;;;;;;11.93;7.20;;;3.00;99.90;;;;;;7193809;32;20857;-76
2022/01/12 08:53:03;;;;;;;11.85;7.90;;;3.00;99.90;;;;;;7194358;32;20102;-75
2022/01/12 08:57:05;;;;;;;16.42;8.55;;;3.00;99.90;;;;;;7178858;32;20243;-76
2022/01/12 09:01:09;;;;;;;13.23;7.70;;;3.00;99.90;;;;;;7202589;32;20097;-75
2022/01/12 09:05:13;;;;;;;14.15;7.62;;;3.10;99.90;;;;;;7178043;32;20101;-76
2022/01/12 09:09:15;;;;;;;17.17;8.23;;;3.00;99.90;;;;;;7181632;32;20352;-75
2022/01/12 09:13:17;;;;;;;16.02;9.15;;;3.00;99.90;;;;;;7189229;32;20113;-75
2022/01/12 09:17:21;;;;;;;18.40;9.48;;;3.10;99.90;;;;;;7182142;32;20121;-76
2022/01/12 09:21:23;;;;;;;17.62;9.25;;;3.10;99.90;;;;;;7207258;32;20093;-76
2022/01/12 09:25:25;;;;;;;13.95;8.70;;;3.10;99.90;;;;;;7209505;32;20663;-77
2022/01/12 09:29:27;;;;;;;15.43;8.95;;;3.10;99.90;;;;;;7195330;32;20104;-76
2022/01/12 09:33:29;;;;;;;16.80;8.60;;;3.20;99.90;;;;;;7192525;32;20121;-77
2022/01/12 09:37:31;;;;;;;14.98;8.68;;;3.20;99.90;;;;;;7192166;32;20182;-76
2022/01/12 09:41:33;;;;;;;19.85;9.23;;;3.40;99.90;;;;;;7204246;32;20170;-77
2022/01/12 09:45:34;;;;;;;18.05;9.65;;;3.20;99.90;;;;;;7200547;32;20124;-76
2022/01/12 09:49:37;;;;;;;24.30;9.93;;;3.20;99.90;;;;;;7196943;32;20125;-76
2022/01/12 09:53:39;;;;;;;25.77;10.88;;;3.40;99.90;;;;;;7203561;32;20171;-76
2022/01/12 09:57:41;;;;;;;18.45;9.30;;;3.50;99.90;;;;;;7201314;32;20795;-78
2022/01/12 10:01:45;;;;;;;15.52;9.07;;;3.50;99.90;;;;;;7187270;32;20844;-76
2022/01/12 10:05:49;;;;;;;23.62;9.63;;;3.60;99.90;;;;;;7177261;32;20125;-76
2022/01/12 10:09:55;;;;;;;19.83;10.20;;;3.60;99.90;;;;;;7167405;32;22243;-76
2022/01/12 10:13:59;;;;;;;21.77;9.80;;;3.70;99.90;;;;;;7192392;32;20515;-76
2022/01/12 10:18:02;;;;;;;20.67;9.55;;;3.70;99.90;;;;;;7186969;32;20120;-76
2022/01/12 10:22:07;;;;;;;22.42;10.25;;;3.60;99.90;;;;;;7190742;33;20167;-76
2022/01/12 10:26:09;;;;;;;23.35;9.80;;;3.70;99.90;;;;;;7194796;33;20184;-76
2022/01/12 10:30:22;;;;;;;17.90;10.05;;;3.80;99.90;;;;;;7193458;33;20139;-77
2022/01/12 10:34:26;;;;;;;20.52;10.95;;;3.70;99.90;;;;;;7188621;33;20519;-76
2022/01/12 10:38:29;;;;;;;21.73;10.25;;;3.80;99.90;;;;;;7216223;32;20186;-76
2022/01/12 10:42:31;;;;;;;29.42;14.98;;;3.80;99.90;;;;;;7197793;32;20121;-76
2022/01/12 10:46:32;;;;;;;24.55;12.20;;;3.70;99.90;;;;;;7173995;33;20127;-76
2022/01/12 10:50:34;;;;;;;24.58;12.27;;;3.70;99.90;;;;;;7193081;33;20170;-77
2022/01/12 10:54:55;;;;;;;32.03;13.13;;;3.70;99.90;;;;;;7205422;32;20499;-77
2022/01/12 10:58:58;;;;;;;34.45;14.05;;;3.80;99.90;;;;;;7197679;33;20503;-77
2022/01/12 11:03:01;;;;;;;44.38;15.90;;;3.90;99.90;;;;;;7196042;32;20117;-77
2022/01/12 11:07:03;;;;;;;42.38;15.38;;;4.00;99.90;;;;;;7200124;33;20098;-77
2022/01/12 11:11:06;;;;;;;38.85;15.65;;;4.00;99.90;;;;;;7190810;33;20101;-77
2022/01/12 11:15:10;;;;;;;40.92;15.65;;;4.00;99.90;;;;;;7189742;32;20220;-76
2022/01/12 11:19:12;;;;;;;48.92;16.98;;;4.00;99.90;;;;;;7208153;32;20186;-77
2022/01/12 11:23:17;;;;;;;45.83;17.37;;;4.00;99.90;;;;;;7184993;32;20653;-78
2022/01/12 11:27:21;;;;;;;53.90;19.10;;;4.00;99.90;;;;;;7196682;32;20125;-76
2022/01/12 11:31:26;;;;;;;51.60;18.23;;;4.10;99.90;;;;;;7209914;32;20195;-74
2022/01/12 11:35:32;;;;;;;50.78;19.02;;;4.00;99.90;;;;;;7189152;32;20135;-76
2022/01/12 11:39:34;;;;;;;59.35;20.83;;;3.90;99.90;;;;;;7199091;32;20182;-76
2022/01/12 11:43:45;;;;;;;57.78;20.45;;;3.80;99.90;;;;;;7207998;32;20205;-76
2022/01/12 11:47:47;;;;;;;49.60;19.55;;;4.00;99.90;;;;;;7193139;32;20285;-76
2022/01/12 11:51:49;;;;;;;63.80;19.67;;;4.20;99.90;;;;;;7194986;32;20129;-76
2022/01/12 11:55:51;;;;;;;56.67;19.77;;;4.10;99.90;;;;;;7191190;32;20113;-76
2022/01/12 11:59:56;;;;;;;58.40;22.70;;;4.00;99.90;;;;;;7183722;32;20236;-79
2022/01/12 12:04:02;;;;;;;65.97;23.00;;;4.00;99.90;;;;;;7199875;32;20181;-77
2022/01/12 12:08:04;;;;;;;73.25;23.23;;;4.00;99.90;;;;;;7221700;32;20915;-78
2022/01/12 12:12:18;;;;;;;63.67;22.08;;;4.00;99.90;;;;;;7213716;32;20140;-79
2022/01/12 12:16:19;;;;;;;71.43;24.23;;;4.10;99.90;;;;;;7207399;32;20783;-77
2022/01/12 12:20:23;;;;;;;79.62;26.77;;;4.00;99.90;;;;;;7185953;32;20762;-75
2022/01/12 12:24:28;;;;;;;;;;;4.00;99.90;;;;;;7181219;32;20794;-76
2022/01/12 12:28:30;;;;;;;76.90;26.00;;;4.00;99.90;;;;;;7212000;32;20032;-77
2022/01/12 12:32:42;;;;;;;74.68;27.60;;;4.00;99.90;;;;;;7197824;32;20148;-76
2022/01/12 12:36:43;;;;;;;76.30;25.77;;;4.00;99.90;;;;;;7194612;32;20540;-76
2022/01/12 12:40:50;;;;;;;70.85;25.52;;;3.90;99.90;;;;;;7182661;32;20200;-76
2022/01/12 12:44:56;;;;;;;71.57;25.98;;;4.10;99.90;;;;;;7212001;32;20189;-77
2022/01/12 12:49:08;;;;;;;68.50;24.58;;;4.10;99.90;;;;;;7198275;32;20105;-76
2022/01/12 12:53:10;;;;;;;77.22;27.87;;;4.00;99.90;;;;;;7206570;32;20192;-76
2022/01/12 12:57:12;;;;;;;75.10;27.15;;;3.90;99.90;;;;;;7190116;32;20128;-76
2022/01/12 13:01:16;;;;;;;84.82;28.50;;;3.90;99.90;;;;;;7178851;32;21304;-76
2022/01/12 13:05:21;;;;;;;79.32;28.17;;;3.70;99.90;;;;;;7180110;32;20124;-77
2022/01/12 13:09:25;;;;;;;83.18;29.63;;;3.70;99.90;;;;;;7186176;32;20554;-77
2022/01/12 13:13:27;;;;;;;69.07;26.65;;;3.70;99.90;;;;;;7198532;32;20718;-77
2022/01/12 13:17:28;;;;;;;75.45;28.05;;;3.80;99.90;;;;;;7198230;32;20175;-77
2022/01/12 13:21:32;;;;;;;69.78;26.30;;;3.90;99.90;;;;;;7194465;32;20184;-77
2022/01/12 13:25:34;;;;;;;73.55;27.20;;;4.10;99.90;;;;;;7196464;32;20819;-76
2022/01/12 13:29:48;;;;;;;78.28;28.33;;;4.00;99.90;;;;;;7187298;32;20208;-76
2022/01/12 13:33:52;;;;;;;77.85;27.58;;;3.80;99.90;;;;;;7199305;32;20763;-76
2022/01/12 13:37:59;;;;;;;77.03;28.50;;;3.90;99.90;;;;;;7193670;32;20492;-76
2022/01/12 13:42:16;;;;;;;73.80;27.90;;;3.80;99.90;;;;;;7204188;32;20455;-76
2022/01/12 13:46:19;;;;;;;78.82;28.67;;;3.80;99.90;;;;;;7200089;32;20250;-76
2022/01/12 13:50:31;;;;;;;73.10;28.08;;;3.80;99.90;;;;;;7181141;32;20573;-76
2022/01/12 13:54:37;;;;;;;70.32;27.95;;;3.80;99.90;;;;;;7209488;32;20110;-76
2022/01/12 13:58:39;;;;;;;79.40;32.10;;;3.80;99.90;;;;;;7184873;32;20192;-76
2022/01/12 14:02:42;;;;;;;68.30;25.90;;;3.90;99.90;;;;;;7172443;32;20126;-74
2022/01/12 14:06:47;;;;;;;69.70;26.35;;;4.00;99.90;;;;;;7205422;32;20212;-75
2022/01/12 14:10:54;;;;;;;79.55;28.15;;;4.00;99.90;;;;;;7205725;32;20171;-75
2022/01/12 14:15:03;;;;;;;86.90;29.37;;;3.80;99.90;;;;;;7199723;32;20132;-76
2022/01/12 14:19:06;;;;;;;83.43;31.92;;;3.80;99.90;;;;;;7179152;32;20200;-75
2022/01/12 14:23:10;;;;;;;85.03;31.33;;;3.70;99.90;;;;;;7202921;32;20718;-77
2022/01/12 14:27:11;;;;;;;81.85;30.90;;;3.70;99.90;;;;;;7181698;33;20135;-75
2022/01/12 14:31:14;;;;;;;81.57;30.65;;;3.70;99.90;;;;;;7196279;33;20110;-76
2022/01/12 14:35:20;;;;;;;85.10;29.70;;;3.70;99.90;;;;;;7192510;33;20140;-76
2022/01/12 14:39:22;;;;;;;87.93;31.13;;;3.60;99.90;;;;;;7194436;32;20163;-74
2022/01/12 14:43:29;;;;;;;79.68;29.30;;;3.60;99.90;;;;;;7186051;33;20125;-77
2022/01/12 14:47:31;;;;;;;72.28;28.62;;;3.60;99.90;;;;;;7202731;32;20101;-76
2022/01/12 14:51:33;;;;;;;71.57;27.60;;;3.80;99.90;;;;;;7203840;32;20709;-76
2022/01/12 14:55:36;;;;;;;74.47;31.35;;;3.80;99.90;;;;;;7199012;32;20470;-76
2022/01/12 14:59:38;;;;;;;75.65;30.85;;;3.80;99.90;;;;;;7198589;32;20121;-78
2022/01/12 15:03:40;;;;;;;72.53;27.27;;;3.90;99.90;;;;;;7203046;32;20136;-76
2022/01/12 15:07:41;;;;;;;70.28;30.80;;;3.80;99.90;;;;;;7193895;32;20121;-79
2022/01/12 15:11:45;;;;;;;65.85;26.85;;;3.90;99.90;;;;;;7196293;32;20113;-76
2022/01/12 15:15:52;;;;;;;74.60;28.05;;;3.80;99.90;;;;;;7183732;32;20114;-76
2022/01/12 15:19:55;;;;;;;;;;;3.70;99.90;;;;;;7182837;32;20132;-76
2022/01/12 15:23:57;;;;;;;58.22;24.87;;;3.80;99.90;;;;;;7180934;32;20115;-78
2022/01/12 15:28:06;;;;;;;71.05;25.98;;;3.70;99.90;;;;;;7194050;32;20133;-76
2022/01/12 15:32:08;;;;;;;61.58;26.20;;;3.70;99.90;;;;;;7176006;32;20097;-75
2022/01/12 15:36:10;;;;;;;62.58;26.45;;;3.70;99.90;;;;;;7199322;32;20117;-75
2022/01/12 15:40:13;;;;;;;63.08;25.23;;;3.70;99.90;;;;;;7196245;32;20200;-76
2022/01/12 15:44:15;;;;;;;72.20;27.27;;;3.80;99.90;;;;;;7181530;32;20531;-76
2022/01/12 15:48:17;;;;;;;68.70;27.52;;;3.80;99.90;;;;;;7196413;32;20306;-75
2022/01/12 15:52:19;;;;;;;72.97;28.70;;;3.60;99.90;;;;;;7184058;32;20106;-75
2022/01/12 15:56:23;;;;;;;67.32;28.17;;;3.70;99.90;;;;;;7198142;32;20514;-75
2022/01/12 16:00:26;;;;;;;77.97;30.88;;;3.70;99.90;;;;;;7188663;32;20129;-75
2022/01/12 16:04:28;;;;;;;77.43;31.90;;;3.70;99.90;;;;;;7208141;32;20131;-76
2022/01/12 16:08:29;;;;;;;72.22;29.75;;;3.60;99.90;;;;;;7203914;32;20105;-76
2022/01/12 16:12:31;;;;;;;81.20;30.88;;;3.60;99.90;;;;;;7209154;32;20598;-77
2022/01/12 16:16:54;;;;;;;75.28;32.67;;;3.60;99.90;;;;;;7195962;32;20239;-76
2022/01/12 16:20:58;;;;;;;73.20;30.27;;;3.60;99.90;;;;;;7194276;32;20187;-76
2022/01/12 16:25:02;;;;;;;77.10;30.42;;;3.60;99.90;;;;;;7185866;32;20120;-76
2022/01/12 16:29:13;;;;;;;73.43;28.83;;;3.60;99.90;;;;;;7199291;32;20105;-76
2022/01/12 16:33:16;;;;;;;80.95;31.95;;;3.50;99.90;;;;;;7186408;32;20124;-76
2022/01/12 16:37:18;;;;;;;75.68;31.58;;;3.50;99.90;;;;;;7212137;32;20121;-76
2022/01/12 16:41:20;;;;;;;69.72;28.85;;;3.50;99.90;;;;;;7213676;32;20128;-75
2022/01/12 16:45:22;;;;;;;71.82;30.27;;;3.50;99.90;;;;;;7191317;32;20142;-75
2022/01/12 16:49:23;;;;;;;80.03;32.65;;;3.50;99.90;;;;;;7193564;32;20790;-76
2022/01/12 16:53:25;;;;;;;75.47;30.95;;;3.50;99.90;;;;;;7194406;32;20537;-76
2022/01/12 16:57:27;;;;;;;82.12;31.00;;;3.60;99.90;;;;;;7177366;32;20362;-76
2022/01/12 17:01:29;;;;;;;78.18;30.95;;;3.50;99.90;;;;;;7191851;32;20339;-78
2022/01/12 17:05:31;;;;;;;83.15;32.78;;;3.50;99.90;;;;;;7184059;32;20101;-76
2022/01/12 17:09:33;;;;;;;85.28;31.30;;;3.50;99.90;;;;;;7188669;32;20121;-76
2022/01/12 17:13:35;;;;;;;76.72;32.53;;;3.50;99.90;;;;;;7211370;32;20101;-76
2022/01/12 17:17:41;;;;;;;79.60;32.92;;;3.60;99.90;;;;;;7196230;32;20192;-76
2022/01/12 17:21:47;;;;;;;84.45;34.60;;;3.60;99.90;;;;;;7203541;32;20121;-77
2022/01/12 17:25:50;;;;;;;85.55;32.65;;;3.60;99.90;;;;;;7188186;32;20106;-77
2022/01/12 17:29:52;;;;;;;93.82;35.80;;;3.60;99.90;;;;;;7183612;32;20135;-76
2022/01/12 17:33:54;;;;;;;80.47;34.42;;;3.60;99.90;;;;;;7191644;32;20374;-75
2022/01/12 17:37:55;;;;;;;82.88;32.58;;;3.70;99.90;;;;;;7188045;32;20534;-75
2022/01/12 17:42:07;;;;;;;73.97;29.23;;;3.70;99.90;;;;;;7187971;32;20640;-75
2022/01/12 17:46:09;;;;;;;68.10;29.35;;;3.80;99.90;;;;;;7206507;32;20506;-75
2022/01/12 17:50:12;;;;;;;63.33;27.90;;;3.90;99.90;;;;;;7186448;32;20263;-75
2022/01/12 17:54:23;;;;;;;61.85;28.42;;;3.80;99.90;;;;;;7192416;32;20100;-75
2022/01/12 17:58:26;;;;;;;57.22;26.48;;;3.80;99.90;;;;;;7192231;32;20112;-77
2022/01/12 18:02:28;;;;;;;59.17;26.05;;;3.80;99.90;;;;;;7195935;32;20125;-75
2022/01/12 18:06:30;;;;;;;60.35;26.87;;;3.80;99.90;;;;;;7202544;32;20187;-76
2022/01/12 18:10:32;;;;;;;55.50;24.52;;;3.80;99.90;;;;;;7190220;32;20679;-76
2022/01/12 18:14:35;;;;;;;48.63;24.08;;;3.80;99.90;;;;;;7200509;32;20097;-76
2022/01/12 18:18:38;;;;;;;48.58;22.60;;;3.70;99.90;;;;;;7187096;32;20105;-77
2022/01/12 18:22:47;;;;;;;50.85;23.55;;;3.60;99.90;;;;;;7192093;32;20117;-78
2022/01/12 18:26:49;;;;;;;50.70;24.30;;;3.60;99.90;;;;;;7175087;33;20546;-77
2022/01/12 18:30:51;;;;;;;50.20;25.42;;;3.60;99.90;;;;;;7193328;32;20467;-77
2022/01/12 18:34:55;;;;;;;49.55;23.35;;;3.70;99.90;;;;;;7196776;33;20200;-76
2022/01/12 18:38:57;;;;;;;46.97;22.23;;;3.70;99.90;;;;;;7202222;33;20211;-76
2022/01/12 18:42:59;;;;;;;46.60;23.40;;;3.60;99.90;;;;;;7202891;32;20113;-76
2022/01/12 18:47:02;;;;;;;47.67;22.35;;;3.60;99.90;;;;;;7193831;33;20136;-76
2022/01/12 18:51:04;;;;;;;43.30;21.80;;;3.70;99.90;;;;;;7191861;33;20179;-76
2022/01/12 18:55:06;;;;;;;39.70;21.92;;;3.70;99.90;;;;;;7186141;33;20192;-76
2022/01/12 18:59:09;;;;;;;36.15;18.92;;;3.70;99.90;;;;;;7182696;33;20113;-76
2022/01/12 19:03:11;;;;;;;39.25;19.60;;;3.80;99.90;;;;;;7192145;33;20112;-76
2022/01/12 19:07:14;;;;;;;38.67;20.33;;;3.80;99.90;;;;;;7200709;32;20128;-76
2022/01/12 19:11:16;;;;;;;43.75;19.05;;;3.70;99.90;;;;;;7204200;32;20582;-76
2022/01/12 19:15:18;;;;;;;39.72;17.60;;;3.80;99.90;;;;;;7187523;32;20261;-76
2022/01/12 19:19:20;;;;;;;42.58;24.25;;;3.80;99.90;;;;;;7203056;32;20117;-77
2022/01/12 19:23:23;;;;;;;34.88;18.05;;;3.80;99.90;;;;;;7188547;32;20136;-76
2022/01/12 19:27:25;;;;;;;39.80;18.50;;;3.80;99.90;;;;;;7182210;32;20137;-76
2022/01/12 19:31:28;;;;;;;42.88;22.55;;;3.80;99.90;;;;;;7201560;32;20192;-77
2022/01/12 19:35:31;;;;;;;40.92;20.45;;;3.80;99.90;;;;;;7204738;32;20147;-77
2022/01/12 19:39:33;;;;;;;40.30;18.77;;;3.80;99.90;;;;;;7190941;32;20164;-77
2022/01/12 19:43:52;;;;;;;34.72;18.42;;;3.80;99.90;;;;;;7205667;32;20552;-77
2022/01/12 19:47:54;;;;;;;33.58;18.77;;;3.70;99.90;;;;;;7194631;32;20101;-78
2022/01/12 19:52:11;;;;;;;35.75;17.73;;;3.70;99.90;;;;;;7189383;32;20152;-78
2022/01/12 19:56:13;;;;;;;36.93;19.70;;;3.70;99.90;;;;;;7198696;32;20180;-78
2022/01/12 20:01:00;;;;;;;35.45;18.65;;;3.70;99.90;;;;;;7195541;32;20128;-78
2022/01/12 20:05:04;;;;;;;39.45;19.37;;;3.70;99.90;;;;;;7198439;32;20180;-78
2022/01/12 20:09:19;;;;;;;42.42;23.02;;;3.70;99.90;;;;;;7189131;32;20103;-77
2022/01/12 20:13:21;;;;;;;36.40;19.70;;;3.50;99.90;;;;;;7197076;32;20466;-78
2022/01/12 20:21:47;;;;;;;34.33;19.23;;;3.50;99.90;;;;;;7210006;32;20444;-77
2022/01/12 20:25:49;;;;;;;40.72;19.27;;;3.60;99.90;;;;;;7201198;32;20185;-77
2022/01/12 20:29:53;;;;;;;41.22;19.45;;;3.50;99.90;;;;;;7209340;32;20200;-77
2022/01/12 20:33:55;;;;;;;36.42;17.70;;;3.50;99.90;;;;;;7205734;32;20159;-77
2022/01/12 20:37:57;;;;;;;37.03;18.23;;;3.50;99.90;;;;;;7199378;32;20291;-77
2022/01/12 20:41:59;;;;;;;37.70;18.87;;;3.50;99.90;;;;;;7206287;32;20110;-76
2022/01/12 20:46:01;;;;;;;40.28;20.12;;;3.50;99.90;;;;;;7184570;32;20626;-77
2022/01/12 20:50:05;;;;;;;44.28;19.65;;;3.40;99.90;;;;;;7190899;32;20109;-77
2022/01/12 20:54:10;;;;;;;40.97;20.37;;;3.50;99.90;;;;;;7183664;32;20179;-77
2022/01/12 20:58:14;;;;;;;40.28;19.73;;;3.50;99.90;;;;;;7180320;32;20162;-78
2022/01/12 21:02:20;;;;;;;41.50;20.30;;;3.50;99.90;;;;;;7187984;32;20136;-76
2022/01/12 21:06:24;;;;;;;;;;;3.40;99.90;;;;;;7172539;32;20601;-78
2022/01/12 21:10:26;;;;;;;38.83;20.37;;;3.40;99.90;;;;;;7201432;32;20013;-77
2022/01/12 21:14:28;;;;;;;38.08;19.42;;;3.40;99.90;;;;;;7201738;32;20268;-77
2022/01/12 21:18:30;;;;;;;43.33;20.85;;;3.40;99.90;;;;;;7182286;32;20109;-77
2022/01/12 21:22:32;;;;;;;40.58;19.92;;;3.40;99.90;;;;;;7191241;32;20113;-77
2022/01/12 21:26:35;;;;;;;44.53;21.00;;;3.30;99.90;;;;;;7190346;32;20105;-78
2022/01/12 21:30:37;;;;;;;43.05;21.92;;;3.40;99.90;;;;;;7202416;32;20166;-76
2022/01/12 21:34:48;;;;;;;42.17;21.12;;;3.40;99.90;;;;;;7179312;32;20122;-77
2022/01/12 21:39:04;;;;;;;43.03;22.75;;;3.40;99.90;;;;;;7188543;32;20105;-78
2022/01/12 21:43:09;;;;;;;46.58;22.42;;;3.40;99.90;;;;;;7187650;32;20207;-77
2022/01/12 21:47:11;;;;;;;44.92;22.50;;;3.40;99.90;;;;;;7189365;32;20105;-78
2022/01/12 21:51:13;;;;;;;43.67;21.73;;;3.30;99.90;;;;;;7191994;32;20204;-77
2022/01/12 21:55:15;;;;;;;39.20;19.35;;;3.40;99.90;;;;;;7193563;32;20140;-77
2022/01/12 21:59:20;;;;;;;42.00;19.30;;;3.40;99.90;;;;;;7204133;32;20113;-78
2022/01/12 22:03:23;;;;;;;38.42;19.37;;;3.20;99.90;;;;;;7191290;32;20196;-75
2022/01/12 22:07:25;;;;;;;36.88;18.48;;;3.30;99.90;;;;;;7185458;32;20209;-75